createdAt,value
2023-10-07T00:01:00.905Z,15.86
2023-10-07T00:03:27.767Z,15.83
2023-10-07T00:06:01.604Z,15.81
2023-10-07T00:08:29.436Z,15.91
2023-10-07T00:11:00.024Z,15.80
2023-10-07T00:13:35.601Z,15.58
2023-10-07T00:16:02.305Z,15.41
2023-10-07T00:18:29.317Z,15.74
2023-10-07T00:20:56.765Z,15.73
2023-10-07T00:23:27.407Z,15.81
2023-10-07T00:25:56.127Z,15.82
2023-10-07T00:28:33.821Z,15.97
2023-10-07T00:31:04.693Z,15.79
2023-10-07T00:33:38.944Z,15.59
2023-10-07T00:36:06.833Z,15.35
2023-10-07T00:38:39.093Z,15.36
2023-10-07T00:41:05.852Z,15.35
2023-10-07T00:43:32.587Z,15.55
2023-10-07T00:46:12.546Z,15.45
2023-10-07T00:48:44.351Z,15.48
2023-10-07T00:51:13.496Z,15.40
2023-10-07T00:53:46.437Z,15.34
2023-10-07T00:56:17.688Z,15.27
2023-10-07T00:58:48.149Z,15.06
2023-10-07T01:01:15.844Z,15.07
2023-10-07T01:03:57.187Z,15.20
2023-10-07T01:06:26.819Z,15.16
2023-10-07T01:09:08.993Z,15.08
2023-10-07T01:11:41.192Z,15.02
2023-10-07T01:14:13.144Z,15.18
2023-10-07T01:16:44.295Z,15.22
2023-10-07T01:19:13.372Z,15.00
2023-10-07T01:21:57.132Z,15.06
2023-10-07T01:24:45.173Z,15.03
2023-10-07T01:27:30.141Z,14.87
2023-10-07T01:30:08.291Z,14.84
2023-10-07T01:32:35.261Z,14.61
2023-10-07T01:35:12.463Z,14.69
2023-10-07T01:38:01.114Z,14.61
2023-10-07T01:40:44.700Z,14.38
2023-10-07T01:43:11.221Z,14.66
2023-10-07T01:45:40.966Z,14.78
2023-10-07T01:48:10.993Z,14.75
2023-10-07T01:50:41.064Z,14.86
2023-10-07T01:53:12.625Z,14.71
2023-10-07T01:55:44.236Z,14.75
2023-10-07T01:58:14.719Z,14.88
2023-10-07T02:00:45.797Z,14.96
2023-10-07T02:03:25.069Z,14.92
2023-10-07T02:05:53.268Z,14.97
2023-10-07T02:08:24.915Z,14.96
2023-10-07T02:10:59.871Z,14.88
2023-10-07T02:13:31.137Z,14.82
2023-10-07T02:15:58.092Z,14.69
2023-10-07T02:18:28.799Z,14.61
2023-10-07T02:21:14.928Z,14.76
2023-10-07T02:23:42.148Z,14.71
2023-10-07T02:26:16.123Z,14.81
2023-10-07T02:28:47.650Z,14.95
2023-10-07T02:31:18.582Z,14.80
2023-10-07T02:33:47.067Z,14.41
2023-10-07T02:36:28.996Z,14.58
2023-10-07T02:38:58.260Z,14.55
2023-10-07T02:41:32.250Z,14.44
2023-10-07T02:44:10.074Z,14.33
2023-10-07T02:46:37.207Z,14.28
2023-10-07T02:49:07.006Z,14.30
2023-10-07T02:51:35.083Z,14.23
2023-10-07T02:54:21.716Z,14.25
2023-10-07T02:56:56.645Z,14.35
2023-10-07T02:59:31.004Z,14.27
2023-10-07T03:02:14.515Z,14.39
2023-10-07T03:04:45.237Z,14.33
2023-10-07T03:07:15.440Z,14.13
2023-10-07T03:09:54.071Z,14.06
2023-10-07T03:12:29.012Z,13.99
2023-10-07T03:15:16.066Z,14.12
2023-10-07T03:17:47.337Z,13.92
2023-10-07T03:20:23.086Z,13.98
2023-10-07T03:23:08.291Z,13.95
2023-10-07T03:25:55.190Z,14.07
2023-10-07T03:28:52.906Z,13.62
2023-10-07T03:31:21.448Z,13.57
2023-10-07T03:33:59.475Z,13.78
2023-10-07T03:36:41.995Z,13.85
2023-10-07T03:39:10.586Z,13.37
2023-10-07T03:41:42.673Z,13.45
2023-10-07T03:44:09.502Z,13.56
2023-10-07T03:46:36.589Z,13.53
2023-10-07T03:49:07.813Z,13.52
2023-10-07T03:51:36.366Z,13.75
2023-10-07T03:54:05.261Z,13.42
2023-10-07T03:56:32.616Z,13.35
2023-10-07T03:59:01.234Z,13.51
2023-10-07T04:01:28.378Z,13.28
2023-10-07T04:04:00.669Z,13.20
2023-10-07T04:06:35.756Z,13.19
2023-10-07T04:09:13.089Z,13.23
2023-10-07T04:11:45.914Z,13.43
2023-10-07T04:14:28.870Z,13.46
2023-10-07T04:17:01.411Z,13.44
2023-10-07T04:19:28.468Z,13.27
2023-10-07T04:21:56.314Z,13.43
2023-10-07T04:24:29.887Z,13.41
2023-10-07T04:27:03.115Z,13.44
2023-10-07T04:29:31.114Z,13.33
2023-10-07T04:31:59.221Z,13.34
2023-10-07T04:34:34.445Z,12.84
2023-10-07T04:37:03.727Z,12.99
2023-10-07T04:40:00.793Z,12.92
2023-10-07T04:42:48.051Z,12.77
2023-10-07T04:45:37.844Z,12.78
2023-10-07T04:48:25.678Z,12.77
2023-10-07T04:51:04.958Z,12.90
2023-10-07T04:53:41.677Z,13.04
2023-10-07T04:56:10.354Z,13.20
2023-10-07T04:58:41.799Z,13.08
2023-10-07T05:01:31.837Z,13.07
2023-10-07T05:03:59.928Z,13.09
2023-10-07T05:06:26.882Z,12.90
2023-10-07T05:08:54.239Z,12.81
2023-10-07T05:11:20.771Z,12.91
2023-10-07T05:13:48.318Z,12.98
2023-10-07T05:16:16.253Z,13.13
2023-10-07T05:18:43.397Z,12.96
2023-10-07T05:21:10.108Z,12.90
2023-10-07T05:23:38.200Z,13.01
2023-10-07T05:26:05.032Z,13.10
2023-10-07T05:28:34.824Z,12.82
2023-10-07T05:31:04.455Z,12.93
2023-10-07T05:33:35.394Z,13.00
2023-10-07T05:36:15.794Z,13.09
2023-10-07T05:38:45.539Z,12.78
2023-10-07T05:41:16.212Z,12.59
2023-10-07T05:43:45.831Z,12.66
2023-10-07T05:46:12.860Z,12.66
2023-10-07T05:48:41.227Z,12.27
2023-10-07T05:51:09.647Z,12.31
2023-10-07T05:53:39.957Z,12.32
2023-10-07T05:56:07.865Z,12.65
2023-10-07T05:58:38.698Z,12.54
2023-10-07T06:01:06.570Z,12.74
2023-10-07T06:03:33.941Z,12.79
2023-10-07T06:06:01.059Z,12.79
2023-10-07T06:08:28.870Z,12.66
2023-10-07T06:10:58.953Z,12.63
2023-10-07T06:13:27.591Z,12.50
2023-10-07T06:15:57.254Z,12.63
2023-10-07T06:18:24.709Z,12.72
2023-10-07T06:20:52.707Z,12.77
2023-10-07T06:23:20.557Z,12.93
2023-10-07T06:25:52.363Z,13.29
2023-10-07T06:28:29.095Z,13.32
2023-10-07T06:31:19.078Z,13.87
2023-10-07T06:34:00.668Z,14.05
2023-10-07T06:36:28.640Z,14.58
2023-10-07T06:38:59.923Z,14.56
2023-10-07T06:41:33.123Z,14.75
2023-10-07T06:44:10.757Z,15.13
2023-10-07T06:46:45.396Z,15.27
2023-10-07T06:49:19.542Z,15.32
2023-10-07T06:51:54.492Z,15.41
2023-10-07T06:54:36.445Z,15.92
2023-10-07T06:57:05.828Z,16.46
2023-10-07T06:59:32.427Z,16.07
2023-10-07T07:02:07.123Z,16.09
2023-10-07T07:04:36.793Z,15.59
2023-10-07T07:07:13.034Z,16.08
2023-10-07T07:09:46.937Z,16.93
2023-10-07T07:12:18.580Z,16.94
2023-10-07T07:14:52.932Z,17.20
2023-10-07T07:17:31.754Z,17.50
2023-10-07T07:20:10.410Z,17.53
2023-10-07T07:22:38.618Z,17.93
2023-10-07T07:25:11.692Z,18.38
2023-10-07T07:27:39.208Z,18.31
2023-10-07T07:30:06.442Z,18.43
2023-10-07T07:32:34.496Z,19.16
2023-10-07T07:35:04.109Z,18.88
2023-10-07T07:37:34.270Z,18.62
2023-10-07T07:40:30.879Z,18.69
2023-10-07T07:42:57.547Z,19.29
2023-10-07T07:45:28.145Z,20.00
2023-10-07T07:47:55.297Z,19.70
2023-10-07T07:50:23.014Z,19.75
2023-10-07T07:52:50.867Z,20.56
2023-10-07T07:55:17.810Z,21.16
2023-10-07T07:57:45.438Z,21.71
2023-10-07T08:00:21.521Z,21.76
2023-10-07T08:02:50.989Z,22.33
2023-10-07T08:05:17.998Z,22.03
2023-10-07T08:07:45.350Z,21.81
2023-10-07T08:10:12.224Z,22.92
2023-10-07T08:12:38.767Z,22.98
2023-10-07T08:15:15.630Z,23.07
2023-10-07T08:17:46.230Z,23.12
2023-10-07T08:20:13.701Z,23.77
2023-10-07T08:22:46.665Z,23.49
2023-10-07T08:25:36.177Z,24.18
2023-10-07T08:28:19.431Z,23.80
2023-10-07T08:30:47.886Z,24.25
2023-10-07T08:33:16.253Z,24.68
2023-10-07T08:35:49.229Z,24.18
2023-10-07T08:38:23.946Z,23.54
2023-10-07T08:41:11.377Z,23.14
2023-10-07T08:44:02.292Z,24.20
2023-10-07T08:46:29.491Z,25.20
2023-10-07T08:49:00.214Z,25.31
2023-10-07T08:51:30.956Z,25.69
2023-10-07T08:54:06.543Z,26.04
2023-10-07T08:56:37.259Z,26.46
2023-10-07T08:59:14.224Z,25.60
2023-10-07T09:01:43.873Z,26.06
2023-10-07T09:04:10.759Z,26.61
2023-10-07T09:06:46.743Z,26.26
2023-10-07T09:09:13.664Z,26.15
2023-10-07T09:11:41.963Z,26.19
2023-10-07T09:14:09.422Z,26.12
2023-10-07T09:16:36.364Z,26.53
2023-10-07T09:19:14.260Z,25.69
2023-10-07T09:21:45.983Z,26.23
2023-10-07T09:24:25.121Z,26.26
2023-10-07T09:26:58.989Z,27.50
2023-10-07T09:29:27.420Z,28.36
2023-10-07T09:32:08.949Z,27.52
2023-10-07T09:34:49.085Z,27.91
2023-10-07T09:37:23.125Z,28.50
2023-10-07T09:39:56.807Z,27.68
2023-10-07T09:42:37.780Z,27.84
2023-10-07T09:45:09.835Z,27.54
2023-10-07T09:47:39.741Z,26.79
2023-10-07T09:50:27.534Z,28.06
2023-10-07T09:53:18.748Z,28.18
2023-10-07T09:56:30.176Z,27.69
2023-10-07T09:59:36.579Z,27.05
2023-10-07T10:02:44.488Z,25.86
2023-10-07T10:05:36.464Z,25.66
2023-10-07T10:08:22.693Z,26.95
2023-10-07T10:10:51.176Z,27.72
2023-10-07T10:13:30.239Z,27.85
2023-10-07T10:16:05.624Z,28.18
2023-10-07T10:18:41.619Z,26.74
2023-10-07T10:21:13.887Z,27.76
2023-10-07T10:23:42.460Z,28.39
2023-10-07T10:26:26.058Z,28.34
2023-10-07T10:29:13.582Z,29.04
2023-10-07T10:31:45.123Z,29.38
2023-10-07T10:34:16.088Z,30.65
2023-10-07T10:36:49.968Z,31.50
2023-10-07T10:42:02.397Z,33.55
2023-10-07T10:44:36.950Z,34.06
2023-10-07T10:47:03.538Z,34.90
2023-10-07T10:49:31.831Z,35.43
2023-10-07T10:52:01.039Z,33.01
2023-10-07T10:54:27.632Z,34.16
2023-10-07T10:57:01.693Z,34.88
2023-10-07T10:59:38.715Z,35.18
2023-10-07T11:02:06.531Z,35.74
2023-10-07T11:04:33.387Z,35.65
2023-10-07T11:07:01.271Z,35.59
2023-10-07T11:09:37.053Z,35.55
2023-10-07T11:12:10.782Z,36.92
2023-10-07T11:14:39.573Z,36.76
2023-10-07T11:17:07.138Z,36.01
2023-10-07T11:19:41.677Z,36.69
2023-10-07T11:22:08.450Z,33.15
2023-10-07T11:24:36.357Z,34.29
2023-10-07T11:27:03.933Z,35.65
2023-10-07T11:29:33.796Z,37.12
2023-10-07T11:32:01.830Z,37.04
2023-10-07T11:34:37.589Z,36.72
2023-10-07T11:37:15.227Z,36.19
2023-10-07T11:39:46.074Z,34.59
2023-10-07T11:42:21.640Z,35.19
2023-10-07T11:44:57.818Z,36.03
2023-10-07T11:47:25.862Z,36.70
2023-10-07T11:49:52.819Z,36.88
2023-10-07T11:52:22.876Z,37.26
2023-10-07T11:54:50.158Z,37.79
2023-10-07T11:57:21.113Z,36.86
2023-10-07T11:59:47.802Z,36.29
2023-10-07T12:02:16.219Z,36.16
2023-10-07T12:04:50.166Z,36.19
2023-10-07T12:07:18.035Z,35.93
2023-10-07T12:09:48.369Z,36.40
2023-10-07T12:12:16.385Z,35.27
2023-10-07T12:14:43.184Z,35.90
2023-10-07T12:17:09.980Z,36.17
2023-10-07T12:19:40.445Z,36.40
2023-10-07T12:22:08.026Z,36.97
2023-10-07T12:24:35.778Z,36.89
2023-10-07T12:27:03.239Z,36.92
2023-10-07T12:29:30.127Z,36.97
2023-10-07T12:31:57.638Z,37.67
2023-10-07T12:34:25.224Z,37.29
2023-10-07T12:36:55.001Z,37.59
2023-10-07T12:39:24.421Z,37.73
2023-10-07T12:41:50.984Z,35.70
2023-10-07T12:44:18.149Z,35.89
2023-10-07T12:46:45.097Z,35.83
2023-10-07T12:49:15.245Z,36.36
2023-10-07T12:51:43.767Z,36.68
2023-10-07T12:54:11.272Z,36.90
2023-10-07T12:56:44.226Z,36.78
2023-10-07T12:59:19.909Z,35.70
2023-10-07T13:01:51.687Z,35.23
2023-10-07T13:04:26.810Z,35.75
2023-10-07T13:07:02.287Z,35.29
2023-10-07T13:09:32.975Z,34.27
2023-10-07T13:12:00.648Z,34.35
2023-10-07T13:14:30.387Z,34.30
2023-10-07T13:17:00.774Z,34.59
2023-10-07T13:19:28.085Z,34.35
2023-10-07T13:21:56.533Z,34.25
2023-10-07T13:24:23.626Z,33.55
2023-10-07T13:26:50.941Z,33.21
2023-10-07T13:29:17.642Z,33.64
2023-10-07T13:31:45.065Z,33.14
2023-10-07T13:34:12.169Z,33.94
2023-10-07T13:36:40.241Z,34.02
2023-10-07T13:39:16.829Z,34.75
2023-10-07T13:41:47.633Z,34.98
2023-10-07T13:44:16.106Z,35.10
2023-10-07T13:46:43.495Z,35.02
2023-10-07T13:49:17.038Z,35.00
2023-10-07T13:51:46.299Z,34.94
2023-10-07T13:54:23.738Z,34.34
2023-10-07T13:56:58.650Z,33.91
2023-10-07T13:59:26.340Z,33.62
2023-10-07T14:01:54.032Z,34.04
2023-10-07T14:04:21.130Z,33.98
2023-10-07T14:06:55.914Z,33.83
2023-10-07T14:09:26.550Z,33.22
2023-10-07T14:11:56.009Z,33.14
2023-10-07T14:14:23.543Z,32.92
2023-10-07T14:16:57.003Z,32.11
2023-10-07T14:19:26.274Z,31.71
2023-10-07T14:21:53.895Z,31.10
2023-10-07T14:24:21.671Z,30.94
2023-10-07T14:26:49.667Z,30.89
2023-10-07T14:29:16.978Z,30.41
2023-10-07T14:31:45.213Z,30.61
2023-10-07T14:34:13.331Z,30.58
2023-10-07T14:36:41.425Z,30.80
2023-10-07T14:39:13.955Z,30.92
2023-10-07T14:41:42.667Z,30.83
2023-10-07T14:44:10.198Z,30.52
2023-10-07T14:46:43.642Z,30.20
2023-10-07T14:49:10.872Z,30.14
2023-10-07T14:51:38.115Z,30.00
2023-10-07T14:54:05.160Z,29.85
2023-10-07T14:56:31.803Z,29.73
2023-10-07T14:59:09.001Z,29.57
2023-10-07T15:01:35.932Z,29.43
2023-10-07T15:04:04.026Z,29.27
2023-10-07T15:06:34.045Z,28.96
2023-10-07T15:09:00.623Z,28.70
2023-10-07T15:11:27.228Z,28.67
2023-10-07T15:13:54.427Z,28.65
2023-10-07T15:16:22.194Z,28.53
2023-10-07T15:18:50.570Z,28.49
2023-10-07T15:21:18.592Z,28.05
2023-10-07T15:23:46.668Z,28.03
2023-10-07T15:26:20.066Z,28.08
2023-10-07T15:28:48.911Z,27.84
2023-10-07T15:31:24.660Z,27.99
2023-10-07T15:33:57.580Z,27.95
2023-10-07T15:36:25.337Z,27.91
2023-10-07T15:38:53.179Z,27.85
2023-10-07T15:41:23.197Z,27.89
2023-10-07T15:43:50.567Z,27.81
2023-10-07T15:46:18.432Z,27.72
2023-10-07T15:48:45.145Z,27.50
2023-10-07T15:51:12.422Z,27.46
2023-10-07T15:53:39.088Z,27.30
2023-10-07T15:56:11.104Z,27.34
2023-10-07T15:58:43.050Z,27.15
2023-10-07T16:01:12.188Z,27.09
2023-10-07T16:03:40.524Z,26.98
2023-10-07T16:06:08.984Z,26.96
2023-10-07T16:08:37.851Z,26.82
2023-10-07T16:11:09.475Z,26.57
2023-10-07T16:13:36.346Z,26.52
2023-10-07T16:16:11.915Z,26.42
2023-10-07T16:18:40.654Z,26.33
2023-10-07T16:21:15.329Z,26.32
2023-10-07T16:23:43.542Z,26.35
2023-10-07T16:26:13.646Z,26.35
2023-10-07T16:28:42.142Z,26.13
2023-10-07T16:31:10.253Z,25.93
2023-10-07T16:33:37.661Z,25.74
2023-10-07T16:36:05.632Z,25.53
2023-10-07T16:38:35.130Z,25.50
2023-10-07T16:41:02.739Z,25.45
2023-10-07T16:43:34.065Z,25.44
2023-10-07T16:46:03.389Z,25.44
2023-10-07T16:48:31.366Z,25.46
2023-10-07T16:51:00.545Z,25.41
2023-10-07T16:53:27.828Z,25.42
2023-10-07T16:55:55.383Z,25.31
2023-10-07T16:58:22.019Z,25.09
2023-10-07T17:00:48.638Z,25.03
2023-10-07T17:03:15.315Z,24.91
2023-10-07T17:05:42.103Z,24.81
2023-10-07T17:08:08.777Z,24.46
2023-10-07T17:10:40.259Z,24.05
2023-10-07T17:13:07.568Z,23.85
2023-10-07T17:15:41.899Z,23.91
2023-10-07T17:18:12.615Z,23.89
2023-10-07T17:20:40.956Z,23.87
2023-10-07T17:23:08.686Z,23.68
2023-10-07T17:25:36.618Z,23.75
2023-10-07T17:28:04.689Z,23.42
2023-10-07T17:30:32.434Z,23.45
2023-10-07T17:33:03.072Z,23.38
2023-10-07T17:35:30.336Z,23.32
2023-10-07T17:37:57.613Z,23.18
2023-10-07T17:40:24.552Z,23.19
2023-10-07T17:42:52.910Z,23.06
2023-10-07T17:45:19.631Z,22.91
2023-10-07T17:47:49.392Z,22.89
2023-10-07T17:50:19.079Z,22.76
2023-10-07T17:52:47.441Z,22.44
2023-10-07T17:55:14.527Z,22.24
2023-10-07T17:57:42.715Z,21.76
2023-10-07T18:00:11.345Z,21.62
2023-10-07T18:02:38.601Z,21.51
2023-10-07T18:05:06.122Z,21.49
2023-10-07T18:07:33.542Z,21.39
2023-10-07T18:10:00.144Z,21.42
2023-10-07T18:12:30.540Z,21.31
2023-10-07T18:17:23.821Z,21.39
2023-10-07T18:19:50.422Z,21.58
2023-10-07T18:22:17.600Z,21.64
2023-10-07T18:24:44.527Z,21.77
2023-10-07T18:27:12.512Z,21.80
2023-10-07T18:29:40.593Z,21.86
2023-10-07T18:32:08.143Z,21.65
2023-10-07T18:34:34.751Z,21.71
2023-10-07T18:39:27.900Z,21.66
2023-10-07T18:41:54.512Z,21.69
2023-10-07T18:44:21.243Z,21.62
2023-10-07T18:46:48.241Z,21.35
2023-10-07T18:49:16.426Z,20.86
2023-10-07T18:51:43.134Z,20.57
2023-10-07T18:54:09.871Z,20.21
2023-10-07T18:56:36.912Z,20.09
2023-10-07T18:59:03.652Z,19.94
2023-10-07T19:01:30.312Z,19.70
2023-10-07T19:03:57.018Z,19.71
2023-10-07T19:06:24.481Z,19.50
2023-10-07T19:08:51.033Z,19.54
2023-10-07T19:11:18.992Z,19.71
2023-10-07T19:13:46.725Z,19.75
2023-10-07T19:16:16.088Z,19.96
2023-10-07T19:18:43.903Z,20.09
2023-10-07T19:21:13.353Z,20.06
2023-10-07T19:23:41.564Z,19.89
2023-10-07T19:26:11.896Z,19.64
2023-10-07T19:28:41.714Z,19.55
2023-10-07T19:31:13.851Z,19.69
2023-10-07T19:33:40.729Z,19.62
2023-10-07T19:36:08.669Z,19.55
2023-10-07T19:38:37.166Z,19.63
2023-10-07T19:41:03.990Z,19.60
2023-10-07T19:43:30.754Z,19.28
2023-10-07T19:45:57.289Z,19.36
2023-10-07T19:48:23.906Z,19.67
2023-10-07T19:50:57.914Z,19.94
2023-10-07T19:53:24.702Z,20.15
2023-10-07T19:55:51.276Z,20.06
2023-10-07T19:58:17.868Z,20.00
2023-10-07T20:00:45.319Z,20.13
2023-10-07T20:03:12.046Z,20.03
2023-10-07T20:05:39.367Z,19.92
2023-10-07T20:08:08.032Z,19.91
2023-10-07T20:10:34.825Z,20.04
2023-10-07T20:13:01.574Z,19.90
2023-10-07T20:15:28.253Z,19.82
2023-10-07T20:17:55.247Z,19.73
2023-10-07T20:20:22.028Z,19.44
2023-10-07T20:22:48.575Z,19.13
2023-10-07T20:25:15.050Z,19.28
2023-10-07T20:27:41.783Z,19.48
2023-10-07T20:30:08.600Z,19.70
2023-10-07T20:32:35.884Z,19.85
2023-10-07T20:35:09.612Z,19.88
2023-10-07T20:37:36.430Z,20.00
2023-10-07T20:40:05.587Z,19.99
2023-10-07T20:42:33.388Z,19.89
2023-10-07T20:45:00.353Z,19.50
2023-10-07T20:47:27.016Z,19.60
2023-10-07T20:49:53.851Z,19.59
2023-10-07T20:52:20.474Z,19.11
2023-10-07T20:54:47.009Z,18.75
2023-10-07T20:57:15.987Z,18.97
2023-10-07T20:59:43.220Z,18.67
2023-10-07T21:02:09.862Z,18.70
2023-10-07T21:04:36.822Z,18.84
2023-10-07T21:07:04.008Z,18.66
2023-10-07T21:09:30.640Z,18.61
2023-10-07T21:11:57.256Z,18.44
2023-10-07T21:14:23.816Z,18.40
2023-10-07T21:16:50.341Z,18.31
2023-10-07T21:19:16.820Z,18.01
2023-10-07T21:21:46.150Z,17.91
2023-10-07T21:24:12.678Z,18.02
2023-10-07T21:26:39.400Z,17.65
2023-10-07T21:29:08.832Z,17.70
2023-10-07T21:31:35.541Z,17.55
2023-10-07T21:34:03.624Z,18.13
2023-10-07T21:36:30.395Z,18.42
2023-10-07T21:38:57.122Z,18.47
2023-10-07T21:41:23.781Z,18.46
2023-10-07T21:43:50.407Z,18.51
2023-10-07T21:46:20.213Z,18.63
2023-10-07T21:48:47.358Z,18.65
2023-10-07T21:51:16.360Z,18.64
2023-10-07T21:53:42.964Z,17.98
2023-10-07T21:56:12.146Z,18.11
2023-10-07T21:58:38.853Z,18.39
2023-10-07T22:01:18.815Z,18.36
2023-10-07T22:03:49.014Z,18.31
2023-10-07T22:06:15.937Z,18.46
2023-10-07T22:08:43.371Z,18.57
2023-10-07T22:11:11.222Z,18.65
2023-10-07T22:13:38.875Z,18.60
2023-10-07T22:16:09.083Z,18.42
2023-10-07T22:18:35.919Z,18.55
2023-10-07T22:21:04.644Z,18.38
2023-10-07T22:23:31.654Z,18.39
2023-10-07T22:25:58.467Z,18.30
2023-10-07T22:28:27.745Z,18.29
2023-10-07T22:30:55.101Z,18.34
2023-10-07T22:33:23.393Z,18.25
2023-10-07T22:35:50.800Z,18.09
2023-10-07T22:38:19.285Z,18.15
2023-10-07T22:41:14.068Z,18.20
2023-10-07T22:43:40.643Z,18.22
2023-10-07T22:46:08.858Z,18.28
2023-10-07T22:48:36.858Z,18.21
2023-10-07T22:51:22.553Z,18.20
2023-10-07T22:54:02.722Z,18.30
2023-10-07T22:56:32.605Z,18.12
2023-10-07T22:59:02.916Z,18.06
2023-10-07T23:01:38.480Z,18.04
2023-10-07T23:04:16.720Z,17.77
2023-10-07T23:07:00.962Z,17.68
2023-10-07T23:09:30.220Z,17.67
2023-10-07T23:11:56.922Z,17.82
2023-10-07T23:14:27.101Z,17.66
2023-10-07T23:16:56.864Z,17.67
2023-10-07T23:19:25.012Z,17.62
2023-10-07T23:21:52.436Z,17.60
2023-10-07T23:24:37.926Z,17.41
2023-10-07T23:27:07.755Z,17.53
2023-10-07T23:29:58.837Z,17.36
2023-10-07T23:32:26.160Z,17.46
2023-10-07T23:35:00.958Z,17.44
2023-10-07T23:37:31.448Z,17.44
2023-10-07T23:40:12.151Z,17.38
2023-10-07T23:42:38.959Z,17.40
2023-10-07T23:45:08.626Z,17.43
2023-10-07T23:47:35.683Z,17.52
2023-10-07T23:50:02.537Z,17.37
2023-10-07T23:52:29.161Z,17.25
2023-10-07T23:54:58.897Z,17.47
2023-10-07T23:57:31.022Z,17.15
2023-10-07T23:59:58.772Z,17.17
